Terminal Aerodrome Forecast
Issued by NWS

Home | Current Version | Previous Version | Text Only | Print | Product List | Glossary On
Versions: 1 2 3 4 5 6 7 8 9 10 11 12
000
FTUS44 KTSA 291100
TAFMLC
TAF
KMLC 291120Z 2912/3012 00000KT P6SM BKN120
     FM291800 04006KT P6SM SCT150
     FM300000 09004KT P6SM SCT120 BKN250 PROB30 3009/3012 5SM -RA BR
      OVC070=

USA.gov is the U.S. government's official web portal to all federal, state and local government web resources and services.